Time;durP1;ratioP1;P1;durP2;ratioP2;P2;SDS_P1;SDS_P2;PMS_P1;PMS_P2;Temp;Humidity;BMP_temperature;BMP_pressure;BME280_temperature;BME280_humidity;BME280_pressure;Samples;Min_cycle;Max_cycle;Signal;HPM_P1;HPM_P2
2022/02/07 00:01:37;;;;;;;0.20;0.20;;;2.40;99.90;;;;;;5048808;28;20414;-80
2022/02/07 00:04:05;;;;;;;0.20;0.20;;;3.20;99.90;;;;;;5035824;28;20044;-84
2022/02/07 00:06:32;;;;;;;0.20;0.20;;;3.10;99.90;;;;;;5036838;28;20045;-80
2022/02/07 00:08:59;;;;;;;0.20;0.20;;;2.50;99.90;;;;;;5036446;28;20038;-84
2022/02/07 00:11:25;;;;;;;0.20;0.20;;;2.50;99.90;;;;;;5036026;28;20719;-83
2022/02/07 00:13:52;;;;;;;0.13;0.13;;;2.50;99.90;;;;;;5036052;28;20041;-83
2022/02/07 00:16:19;;;;;;;0.20;0.20;;;3.10;99.90;;;;;;5036168;28;20046;-83
2022/02/07 00:18:45;;;;;;;0.20;0.20;;;3.00;99.90;;;;;;5036046;28;20045;-83
2022/02/07 00:21:12;;;;;;;0.20;0.20;;;2.80;99.90;;;;;;5052029;28;20049;-83
2022/02/07 00:23:39;;;;;;;0.20;0.20;;;2.60;99.90;;;;;;5051907;28;20045;-80
2022/02/07 00:26:05;;;;;;;0.20;0.20;;;2.60;99.90;;;;;;5052198;28;20041;-80
2022/02/07 00:28:32;;;;;;;0.10;0.10;;;2.70;99.90;;;;;;5035443;28;20068;-83
2022/02/07 00:31:00;;;;;;;0.10;0.10;;;2.70;99.90;;;;;;5052411;28;20087;-80
2022/02/07 00:33:26;;;;;;;0.20;0.20;;;2.60;99.90;;;;;;5052060;28;20095;-80
2022/02/07 00:35:53;;;;;;;0.10;0.10;;;2.60;99.90;;;;;;5068375;28;20498;-84
2022/02/07 00:38:22;;;;;;;0.20;0.20;;;3.40;99.90;;;;;;5035372;28;20042;-80
2022/02/07 00:41:07;;;;;;;0.13;0.13;;;2.50;99.90;;;;;;5051951;28;20041;-82
2022/02/07 00:43:40;;;;;;;0.10;0.10;;;3.00;99.90;;;;;;5051601;28;20045;-83
2022/02/07 00:46:10;;;;;;;0.20;0.20;;;2.50;99.90;;;;;;5036463;28;20037;-83
2022/02/07 00:48:38;;;;;;;0.20;0.20;;;2.50;99.90;;;;;;5035817;28;20034;-83
2022/02/07 00:51:06;;;;;;;0.20;0.20;;;2.50;99.90;;;;;;5035478;28;20041;-84
2022/02/07 00:53:33;;;;;;;0.10;0.10;;;2.60;99.90;;;;;;5051505;28;20042;-84
2022/02/07 00:56:01;;;;;;;0.15;0.15;;;2.80;99.90;;;;;;5035593;28;20056;-83
2022/02/07 00:58:28;;;;;;;0.20;0.20;;;2.70;99.90;;;;;;5051016;28;20453;-80
2022/02/07 01:00:55;;;;;;;0.20;0.20;;;2.70;99.90;;;;;;5067939;28;20184;-83
2022/02/07 01:03:22;;;;;;;0.20;0.20;;;2.70;99.90;;;;;;5035022;28;20034;-80
2022/02/07 01:05:49;;;;;;;0.10;0.10;;;2.90;99.90;;;;;;5035014;28;20131;-84
2022/02/07 01:08:20;;;;;;;0.10;0.10;;;2.70;99.90;;;;;;5051353;28;20072;-83
2022/02/07 01:11:02;;;;;;;0.20;0.20;;;2.80;99.90;;;;;;5051465;28;20445;-83
2022/02/07 01:56:26;;;;;;;0.13;0.13;;;3.60;99.90;;;;;;5052652;28;20095;-80
2022/02/07 01:58:53;;;;;;;0.17;0.17;;;3.50;99.90;;;;;;5050995;28;20133;-79
2022/02/07 02:01:20;;;;;;;0.20;0.20;;;3.50;99.90;;;;;;5033834;28;20096;-80
2022/02/07 02:03:46;;;;;;;0.10;0.10;;;3.50;99.90;;;;;;5033983;28;20702;-80
2022/02/07 02:06:13;;;;;;;0.10;0.10;;;3.50;99.90;;;;;;5033951;28;20422;-83
2022/02/07 02:08:41;;;;;;;0.10;0.10;;;3.60;99.90;;;;;;5033814;28;20038;-80
2022/02/07 02:11:07;;;;;;;0.10;0.10;;;3.60;99.90;;;;;;5033892;28;20587;-80
2022/02/07 02:16:35;;;;;;;0.10;0.10;;;4.40;99.90;;;;;;5043665;28;20110;-80
2022/02/07 02:19:47;;;;;;;0.10;0.10;;;4.50;99.90;;;;;;5035207;28;20042;-79
2022/02/07 02:39:03;;;;;;;0.10;0.10;;;3.90;99.90;;;;;;5051063;28;20056;-82
2022/02/07 02:46:52;;;;;;;0.20;0.20;;;3.90;99.90;;;;;;5066142;28;20052;-80
2022/02/07 02:49:19;;;;;;;0.10;0.10;;;3.90;99.90;;;;;;5050121;28;20091;-83
2022/02/07 02:51:46;;;;;;;0.10;0.10;;;3.90;99.90;;;;;;5049502;28;20073;-80
2022/02/07 02:54:12;;;;;;;0.20;0.20;;;3.90;99.90;;;;;;5049597;28;20045;-80
2022/02/07 02:56:39;;;;;;;0.10;0.10;;;3.90;99.90;;;;;;5049410;28;20116;-79
2022/02/07 02:59:06;;;;;;;0.10;0.10;;;4.10;99.90;;;;;;5033161;28;20401;-83
2022/02/07 03:01:33;;;;;;;0.20;0.20;;;4.00;99.90;;;;;;5049203;28;20041;-83
2022/02/07 03:04:00;;;;;;;0.10;0.10;;;3.80;99.90;;;;;;5033033;28;20060;-79
2022/02/07 03:06:26;;;;;;;0.10;0.10;;;3.80;99.90;;;;;;5032989;28;20045;-83
2022/02/07 03:08:53;;;;;;;0.52;0.52;;;3.90;99.90;;;;;;5049548;28;20049;-83
2022/02/07 03:11:23;;;;;;;0.20;0.20;;;3.80;99.90;;;;;;5049463;28;20041;-79
2022/02/07 03:13:51;;;;;;;0.10;0.10;;;3.70;99.90;;;;;;5033194;28;20456;-80
2022/02/07 03:16:38;;;;;;;0.10;0.10;;;3.90;99.90;;;;;;5033229;28;20065;-79
2022/02/07 03:19:14;;;;;;;0.10;0.10;;;3.70;99.90;;;;;;5035787;28;20044;-83
2022/02/07 03:21:43;;;;;;;0.10;0.10;;;3.70;99.90;;;;;;5049026;28;20065;-79
2022/02/07 03:24:10;;;;;;;0.10;0.10;;;3.80;99.90;;;;;;5065725;28;20517;-83
2022/02/07 03:26:43;;;;;;;0.10;0.10;;;3.80;99.90;;;;;;5033134;28;20038;-83
2022/02/07 03:29:12;;;;;;;0.10;0.10;;;3.80;99.90;;;;;;5049407;28;20045;-79
2022/02/07 03:31:39;;;;;;;0.10;0.10;;;4.20;99.90;;;;;;5049437;28;20047;-80
2022/02/07 03:34:06;;;;;;;0.20;0.20;;;3.80;99.90;;;;;;5049221;28;20073;-79
2022/02/07 03:36:33;;;;;;;0.10;0.10;;;3.90;99.90;;;;;;5065773;28;20041;-80
2022/02/07 03:39:01;;;;;;;0.10;0.10;;;3.90;99.90;;;;;;5036036;28;20043;-79
2022/02/07 03:41:28;;;;;;;0.10;0.10;;;4.50;99.90;;;;;;5053337;28;20048;-79
2022/02/07 03:43:54;;;;;;;0.10;0.10;;;3.90;99.90;;;;;;5036339;28;20037;-79
2022/02/07 03:46:21;;;;;;;0.10;0.10;;;4.30;99.90;;;;;;5052999;28;20120;-79
2022/02/07 03:48:48;;;;;;;0.10;0.10;;;4.00;99.90;;;;;;5036440;28;20041;-81
2022/02/07 03:51:14;;;;;;;0.10;0.10;;;4.10;99.90;;;;;;5036382;28;20033;-79
2022/02/07 03:53:41;;;;;;;0.20;0.20;;;4.10;99.90;;;;;;5053129;28;20041;-83
2022/02/07 03:56:08;;;;;;;0.10;0.10;;;4.10;99.90;;;;;;5036345;28;20076;-83
2022/02/07 03:58:35;;;;;;;0.10;0.10;;;4.10;99.90;;;;;;5052201;28;20057;-83
2022/02/07 04:01:02;;;;;;;0.10;0.10;;;4.20;99.90;;;;;;5052324;28;20528;-83
2022/02/07 04:03:31;;;;;;;0.10;0.10;;;4.10;99.90;;;;;;5036334;28;20041;-79
2022/02/07 04:06:02;;;;;;;0.10;0.10;;;4.20;99.90;;;;;;5052522;28;20068;-80
2022/02/07 04:08:36;;;;;;;0.10;0.10;;;4.10;99.90;;;;;;5037240;28;20394;-80
2022/02/07 04:13:33;;;;;;;0.10;0.10;;;4.20;99.90;;;;;;5052476;28;20525;-79
2022/02/07 04:16:02;;;;;;;0.10;0.10;;;4.20;99.90;;;;;;5037605;28;20077;-79
2022/02/07 04:18:46;;;;;;;0.10;0.10;;;4.40;99.90;;;;;;5066922;28;20048;-83
2022/02/07 04:21:16;;;;;;;0.20;0.20;;;4.20;99.90;;;;;;5060515;28;20406;-79
2022/02/07 04:23:43;;;;;;;0.10;0.10;;;4.30;99.90;;;;;;5071875;28;20041;-81
2022/02/07 04:26:09;;;;;;;0.10;0.10;;;4.30;99.90;;;;;;5052840;28;20033;-80
2022/02/07 04:28:36;;;;;;;0.10;0.10;;;4.40;99.90;;;;;;5072055;28;20048;-84
2022/02/07 04:31:03;;;;;;;0.10;0.10;;;4.40;99.90;;;;;;5071677;28;20090;-80
2022/02/07 04:33:29;;;;;;;0.10;0.10;;;4.70;99.90;;;;;;5072098;28;20070;-84
2022/02/07 04:35:56;;;;;;;0.10;0.10;;;4.40;99.90;;;;;;5071952;28;20041;-84
2022/02/07 04:38:23;;;;;;;0.10;0.10;;;4.10;99.90;;;;;;5071857;28;20513;-85
2022/02/07 04:40:49;;;;;;;0.15;0.15;;;4.20;99.90;;;;;;5055089;28;20041;-80
2022/02/07 04:43:18;;;;;;;0.20;0.20;;;4.10;99.90;;;;;;5071610;28;20055;-84
2022/02/07 04:53:38;;;;;;;0.10;0.10;;;4.50;99.90;;;;;;5053974;28;20571;-80
2022/02/07 04:56:59;;;;;;;0.10;0.10;;;4.10;99.90;;;;;;5073329;28;20036;-80
2022/02/07 04:59:07;;;;;;;0.10;0.10;;;3.80;99.90;;;;;;5063548;28;20053;-80
2022/02/07 05:01:44;;;;;;;0.10;0.10;;;4.60;99.90;;;;;;5069165;28;20041;-84
2022/02/07 05:04:23;;;;;;;0.15;0.15;;;3.70;99.90;;;;;;5069570;28;20037;-84
2022/02/07 05:15:06;;;;;;;0.10;0.10;;;3.70;99.90;;;;;;5073561;28;20478;-84
2022/02/07 05:17:36;;;;;;;0.10;0.10;;;3.70;99.90;;;;;;5071043;28;20040;-81
2022/02/07 05:20:05;;;;;;;0.10;0.10;;;3.60;99.90;;;;;;5071681;28;20037;-80
2022/02/07 05:22:32;;;;;;;0.10;0.10;;;3.50;99.90;;;;;;5071004;28;20459;-80
2022/02/07 05:24:59;;;;;;;0.10;0.10;;;3.50;99.90;;;;;;5070762;28;20048;-80
2022/02/07 05:27:26;;;;;;;0.20;0.20;;;3.50;99.90;;;;;;5070890;28;20037;-80
2022/02/07 05:29:53;;;;;;;0.10;0.10;;;4.00;99.90;;;;;;5054392;28;20037;-83
2022/02/07 05:32:19;;;;;;;0.20;0.20;;;3.90;99.90;;;;;;5070913;28;20132;-84
2022/02/07 05:34:46;;;;;;;0.10;0.10;;;3.40;99.90;;;;;;5054523;28;20040;-84
2022/02/07 05:37:15;;;;;;;0.10;0.10;;;3.40;99.90;;;;;;5054111;28;20048;-84
2022/02/07 05:39:45;;;;;;;0.20;0.20;;;3.40;99.90;;;;;;5070874;28;20045;-80
2022/02/07 05:42:12;;;;;;;0.20;0.20;;;3.40;99.90;;;;;;5087149;28;20049;-84
2022/02/07 05:44:39;;;;;;;0.15;0.15;;;4.00;99.90;;;;;;5070537;28;20116;-84
2022/02/07 05:47:06;;;;;;;0.10;0.10;;;3.50;99.90;;;;;;5054048;28;20037;-80
2022/02/07 05:49:33;;;;;;;0.10;0.10;;;3.40;99.90;;;;;;5070814;28;20044;-84
2022/02/07 05:51:59;;;;;;;0.10;0.10;;;3.50;99.90;;;;;;5053515;28;20045;-80
2022/02/07 05:54:26;;;;;;;0.13;0.13;;;3.50;99.90;;;;;;5070321;28;20041;-84
2022/02/07 05:56:53;;;;;;;0.20;0.20;;;3.70;99.90;;;;;;5070048;28;20048;-84
2022/02/07 05:59:20;;;;;;;0.10;0.10;;;3.20;99.90;;;;;;5053499;28;20081;-84
2022/02/07 06:01:46;;;;;;;0.10;0.10;;;3.80;99.90;;;;;;5053067;28;20080;-80
2022/02/07 06:04:13;;;;;;;0.10;0.10;;;3.10;99.90;;;;;;5070055;28;20037;-80
2022/02/07 06:06:40;;;;;;;0.10;0.10;;;3.40;99.90;;;;;;5053762;28;20040;-80
2022/02/07 06:09:07;;;;;;;0.13;0.13;;;3.40;99.90;;;;;;5069877;28;20103;-80
2022/02/07 06:11:34;;;;;;;0.10;0.10;;;3.10;99.90;;;;;;5054206;28;20123;-84
2022/02/07 06:14:01;;;;;;;0.10;0.10;;;3.90;99.90;;;;;;5070020;28;20468;-85
2022/02/07 06:16:31;;;;;;;0.10;0.10;;;3.10;99.90;;;;;;5070006;28;20037;-80
2022/02/07 06:18:59;;;;;;;0.10;0.10;;;3.10;99.90;;;;;;5070160;28;20072;-82
2022/02/07 06:21:27;;;;;;;0.20;0.20;;;4.00;99.90;;;;;;5070108;28;20033;-80
2022/02/07 06:23:55;;;;;;;0.10;0.10;;;3.20;99.90;;;;;;5070022;28;20067;-84
2022/02/07 06:26:22;;;;;;;0.10;0.10;;;3.40;99.90;;;;;;5086240;28;20382;-85
2022/02/07 06:28:48;;;;;;;0.10;0.10;;;3.10;99.90;;;;;;5053759;28;20083;-84
2022/02/07 06:31:15;;;;;;;0.10;0.10;;;3.20;99.90;;;;;;5053154;28;20921;-80
2022/02/07 06:33:42;;;;;;;0.20;0.20;;;3.10;99.90;;;;;;5069879;28;20128;-80
2022/02/07 06:36:09;;;;;;;0.15;0.15;;;3.20;99.90;;;;;;5053036;28;20041;-84
2022/02/07 06:38:35;;;;;;;0.20;0.20;;;3.20;99.90;;;;;;5069620;28;20045;-80
2022/02/07 06:41:02;;;;;;;0.10;0.10;;;3.10;99.90;;;;;;5069405;28;20037;-81
2022/02/07 06:43:29;;;;;;;0.10;0.10;;;3.30;99.90;;;;;;5069203;28;20126;-84
2022/02/07 06:45:58;;;;;;;0.20;0.20;;;3.60;99.90;;;;;;5069561;28;20044;-84
2022/02/07 06:48:26;;;;;;;0.10;0.10;;;3.00;99.90;;;;;;5069944;28;20175;-80
2022/02/07 06:50:53;;;;;;;0.20;0.20;;;3.30;99.90;;;;;;5052977;28;20497;-84
2022/02/07 06:53:20;;;;;;;0.20;0.20;;;3.00;99.90;;;;;;5068787;28;20041;-84
2022/02/07 06:55:48;;;;;;;0.10;0.10;;;3.00;99.90;;;;;;5069306;28;20036;-80
2022/02/07 06:58:15;;;;;;;0.20;0.20;;;3.10;99.90;;;;;;5068803;28;20057;-80
2022/02/07 07:00:42;;;;;;;0.10;0.10;;;3.10;99.90;;;;;;5069580;28;20045;-84
2022/02/07 07:03:15;;;;;;;0.13;0.13;;;3.10;99.90;;;;;;5068888;28;20060;-80
2022/02/07 07:05:42;;;;;;;0.10;0.10;;;3.40;99.90;;;;;;5069970;28;20091;-80
2022/02/07 07:08:09;;;;;;;0.20;0.20;;;3.20;99.90;;;;;;5052707;28;20042;-83
2022/02/07 07:10:36;;;;;;;0.20;0.20;;;3.70;99.90;;;;;;5049545;28;20043;-80
2022/02/07 07:13:13;;;;;;;0.20;0.20;;;3.30;99.90;;;;;;5034607;28;20521;-84
2022/02/07 07:15:43;;;;;;;0.10;0.10;;;3.40;99.90;;;;;;5069610;28;20045;-81
2022/02/07 07:18:10;;;;;;;0.20;0.20;;;3.50;99.90;;;;;;5054706;28;20494;-85
2022/02/07 07:20:36;;;;;;;0.10;0.10;;;3.80;99.90;;;;;;5053414;28;20049;-85
2022/02/07 07:23:04;;;;;;;0.20;0.20;;;3.70;99.90;;;;;;5059813;28;20041;-80
2022/02/07 07:25:31;;;;;;;0.10;0.10;;;4.40;99.90;;;;;;5069624;28;20037;-85
2022/02/07 07:28:02;;;;;;;0.20;0.20;;;3.60;99.90;;;;;;5037296;28;20045;-85
2022/02/07 07:30:34;;;;;;;0.10;0.10;;;4.40;99.90;;;;;;5037274;28;20493;-80
2022/02/07 07:33:15;;;;;;;0.15;0.15;;;3.50;99.90;;;;;;5076635;28;20041;-80
2022/02/07 07:35:42;;;;;;;0.20;0.20;;;3.50;99.90;;;;;;5070651;28;20037;-80
2022/02/07 07:38:09;;;;;;;0.20;0.20;;;3.50;99.90;;;;;;5053215;28;20046;-80
2022/02/07 07:40:36;;;;;;;0.10;0.10;;;3.40;99.90;;;;;;5072567;28;20041;-85
2022/02/07 07:43:05;;;;;;;0.20;0.20;;;4.30;99.90;;;;;;5069270;28;20073;-85
2022/02/07 07:45:33;;;;;;;0.10;0.10;;;3.50;99.90;;;;;;5052813;28;20041;-86
2022/02/07 07:48:04;;;;;;;0.10;0.10;;;3.70;99.90;;;;;;5069545;28;20041;-80
2022/02/07 07:50:40;;;;;;;0.10;0.10;;;4.20;99.90;;;;;;5069858;28;20190;-84
2022/02/07 08:03:42;;;;;;;0.10;0.10;;;3.60;99.90;;;;;;5066468;28;20124;-80
2022/02/07 08:06:14;;;;;;;0.20;0.20;;;3.60;99.90;;;;;;5058749;28;20516;-85
2022/02/07 08:11:26;;;;;;;0.10;0.10;;;3.80;99.90;;;;;;5051372;28;20081;-80
2022/02/07 08:13:55;;;;;;;0.20;0.20;;;3.80;99.90;;;;;;5035607;28;20665;-78
2022/02/07 08:16:21;;;;;;;0.13;0.13;;;3.90;99.90;;;;;;5029969;28;20040;-85
2022/02/07 08:18:48;;;;;;;1.17;0.55;;;3.90;99.90;;;;;;5050159;28;20047;-80
2022/02/07 08:21:15;;;;;;;0.10;0.10;;;4.60;99.90;;;;;;5049996;28;20123;-84
2022/02/07 08:23:43;;;;;;;0.10;0.10;;;4.10;99.90;;;;;;5067193;28;20037;-85
2022/02/07 08:26:10;;;;;;;0.17;0.17;;;4.10;99.90;;;;;;5035736;28;20479;-80
2022/02/07 08:28:37;;;;;;;0.10;0.10;;;4.40;99.90;;;;;;5071362;28;20635;-85
2022/02/07 08:31:04;;;;;;;0.13;0.13;;;4.40;99.90;;;;;;5080355;28;20033;-81
2022/02/07 08:33:31;;;;;;;0.10;0.10;;;4.60;99.90;;;;;;5055313;28;20041;-80
2022/02/07 08:35:57;;;;;;;0.10;0.10;;;4.30;99.90;;;;;;5065241;28;20531;-86
2022/02/07 08:38:24;;;;;;;0.20;0.20;;;4.20;99.90;;;;;;5035251;28;20044;-86
2022/02/07 08:40:52;;;;;;;0.10;0.10;;;4.20;99.90;;;;;;5031511;28;20041;-84
2022/02/07 08:43:19;;;;;;;0.10;0.10;;;4.20;99.90;;;;;;5031472;28;20049;-85
2022/02/07 08:45:46;;;;;;;0.10;0.10;;;4.90;99.90;;;;;;5015357;28;20045;-84
2022/02/07 08:48:12;;;;;;;0.10;0.10;;;4.30;99.90;;;;;;5015537;28;20045;-80
2022/02/07 08:50:39;;;;;;;0.10;0.10;;;4.30;99.90;;;;;;5015035;28;20057;-87
2022/02/07 08:53:07;;;;;;;0.10;0.10;;;4.30;99.90;;;;;;5015437;28;20045;-85
2022/02/07 08:58:06;;;;;;;0.20;0.20;;;4.40;99.90;;;;;;5031811;28;20060;-86
2022/02/07 09:09:04;;;;;;;0.10;0.10;;;4.90;99.90;;;;;;5048502;28;20542;-87
2022/02/07 09:11:32;;;;;;;0.10;0.10;;;5.00;99.90;;;;;;5017204;28;20049;-80
2022/02/07 09:14:02;;;;;;;0.10;0.10;;;5.00;99.90;;;;;;5015422;28;20041;-80
2022/02/07 09:16:31;;;;;;;0.10;0.10;;;5.00;99.90;;;;;;5043690;28;20048;-80
2022/02/07 09:18:58;;;;;;;0.10;0.10;;;5.10;99.90;;;;;;5071932;28;20130;-85
2022/02/07 09:21:28;;;;;;;0.10;0.10;;;5.20;99.90;;;;;;5065151;28;20125;-80
2022/02/07 09:23:59;;;;;;;0.10;0.10;;;5.90;99.90;;;;;;5072963;28;20049;-85
2022/02/07 09:26:26;;;;;;;0.10;0.10;;;5.20;99.90;;;;;;5055982;28;20433;-84
2022/02/07 09:28:53;;;;;;;0.10;0.10;;;5.40;99.90;;;;;;5050664;28;20095;-79
2022/02/07 09:31:21;;;;;;;0.10;0.10;;;5.60;99.90;;;;;;5050335;28;20037;-79
2022/02/07 09:33:49;;;;;;;0.10;0.10;;;5.60;99.90;;;;;;5050595;28;20053;-85
2022/02/07 09:36:16;;;;;;;0.10;0.10;;;5.60;99.90;;;;;;5050612;28;20131;-80
2022/02/07 09:38:44;;;;;;;0.10;0.10;;;5.70;99.90;;;;;;5066338;28;20227;-79
2022/02/07 09:41:13;;;;;;;0.10;0.10;;;5.80;99.90;;;;;;5070568;28;20045;-85
2022/02/07 09:43:45;;;;;;;0.10;0.10;;;5.70;99.90;;;;;;5070625;28;20056;-85
2022/02/07 09:46:19;;;;;;;0.10;0.10;;;5.80;99.90;;;;;;5054405;28;20037;-80
2022/02/07 09:48:45;;;;;;;0.00;0.00;;;5.90;99.90;;;;;;5070852;28;20041;-86
2022/02/07 09:51:13;;;;;;;0.10;0.10;;;6.00;99.90;;;;;;5068901;28;20041;-80
2022/02/07 09:53:41;;;;;;;0.10;0.10;;;6.10;99.90;;;;;;5050114;28;20128;-80
2022/02/07 09:56:10;;;;;;;0.10;0.10;;;6.10;99.90;;;;;;5067659;28;20041;-86
2022/02/07 09:58:38;;;;;;;0.10;0.10;;;6.10;99.90;;;;;;5066102;28;20148;-80
2022/02/07 10:01:17;;;;;;;0.10;0.10;;;6.10;99.90;;;;;;5055200;28;20046;-85
2022/02/07 10:03:58;;;;;;;0.10;0.10;;;6.80;99.90;;;;;;5034337;28;20052;-87
2022/02/07 10:09:38;;;;;;;0.10;0.10;;;6.40;99.90;;;;;;5078712;28;20044;-80
2022/02/07 10:39:37;;;;;;;0.10;0.10;;;6.60;99.90;;;;;;4997410;28;20518;-80
2022/02/07 10:44:57;;;;;;;0.10;0.10;;;6.70;99.90;;;;;;5031277;28;20045;-80
2022/02/07 10:47:31;;;;;;;0.08;0.08;;;6.70;99.90;;;;;;5050199;28;20409;-85
2022/02/07 10:49:58;;;;;;;0.00;0.00;;;6.80;99.90;;;;;;5069289;28;20763;-85
2022/02/07 10:52:29;;;;;;;0.10;0.10;;;7.10;99.90;;;;;;5056481;28;20079;-85
2022/02/07 10:54:56;;;;;;;0.10;0.10;;;6.90;99.90;;;;;;5050338;28;20724;-85
2022/02/07 10:57:23;;;;;;;0.10;0.10;;;7.50;99.90;;;;;;5065746;28;20057;-80
2022/02/07 10:59:50;;;;;;;0.10;0.10;;;7.00;99.90;;;;;;5048941;28;20053;-85
2022/02/07 11:04:57;;;;;;;0.10;0.10;;;7.20;99.90;;;;;;5065425;28;20501;-85
2022/02/07 11:07:27;;;;;;;0.10;0.10;;;7.00;99.90;;;;;;5033783;28;20061;-86
2022/02/07 11:15:12;;;;;;;0.10;0.10;;;7.10;99.90;;;;;;5065314;28;20516;-80
2022/02/07 11:18:14;;;;;;;0.10;0.10;;;7.00;99.90;;;;;;5048913;28;20586;-80
2022/02/07 11:21:00;;;;;;;0.10;0.10;;;7.00;99.90;;;;;;5068126;28;20045;-85
2022/02/07 11:23:33;;;;;;;0.00;0.00;;;7.10;99.90;;;;;;5069123;28;20041;-80
2022/02/07 11:26:14;;;;;;;0.10;0.10;;;7.10;99.90;;;;;;5051989;28;20116;-80
2022/02/07 11:28:43;;;;;;;0.10;0.10;;;7.00;99.90;;;;;;5062749;28;20069;-86
2022/02/07 11:31:10;;;;;;;0.05;0.05;;;7.10;99.90;;;;;;5065892;28;20037;-86
2022/02/07 11:33:49;;;;;;;0.10;0.10;;;7.10;99.90;;;;;;5031902;28;20694;-85
2022/02/07 11:36:34;;;;;;;0.10;0.10;;;7.30;99.90;;;;;;5046668;28;20080;-85
2022/02/07 11:39:14;;;;;;;0.00;0.00;;;7.10;99.90;;;;;;5049350;28;20041;-87
2022/02/07 11:41:56;;;;;;;0.03;0.03;;;7.00;99.90;;;;;;5048401;28;20041;-86
2022/02/07 11:44:27;;;;;;;0.10;0.10;;;6.90;99.90;;;;;;5048763;28;20144;-80
2022/02/07 11:47:33;;;;;;;0.10;0.10;;;7.00;99.90;;;;;;5065423;28;20033;-86
2022/02/07 11:50:07;;;;;;;0.10;0.10;;;7.00;99.90;;;;;;4989458;28;20047;-80
2022/02/07 11:52:55;;;;;;;0.10;0.10;;;7.10;99.90;;;;;;5038507;28;20414;-81
2022/02/07 11:55:25;;;;;;;0.10;0.10;;;7.10;99.90;;;;;;5048440;28;20037;-80
2022/02/07 11:57:58;;;;;;;9.85;0.40;;;7.10;99.90;;;;;;5049024;28;20057;-81
2022/02/07 12:00:31;;;;;;;0.10;0.10;;;7.20;99.90;;;;;;5052902;28;20469;-86
2022/02/07 12:03:07;;;;;;;0.10;0.10;;;7.30;99.90;;;;;;5053257;28;20041;-86
2022/02/07 12:05:44;;;;;;;0.10;0.10;;;7.40;99.90;;;;;;5052391;28;20038;-80
2022/02/07 12:08:24;;;;;;;0.00;0.00;;;7.40;99.90;;;;;;5052193;28;20042;-80
2022/02/07 12:11:03;;;;;;;0.10;0.10;;;7.30;99.90;;;;;;5052090;28;20037;-87
2022/02/07 12:13:32;;;;;;;0.10;0.10;;;7.10;99.90;;;;;;5051910;28;20045;-80
2022/02/07 12:16:15;;;;;;;0.00;0.00;;;7.10;99.90;;;;;;5068195;28;20046;-87
2022/02/07 12:18:45;;;;;;;0.10;0.10;;;7.00;99.90;;;;;;5052290;28;20049;-86
2022/02/07 12:21:18;;;;;;;0.10;0.10;;;7.00;99.90;;;;;;5067955;28;20045;-81
2022/02/07 12:23:49;;;;;;;0.10;0.10;;;7.00;99.90;;;;;;5063154;28;20451;-86
2022/02/07 12:26:17;;;;;;;0.10;0.10;;;7.10;99.90;;;;;;5054336;28;20120;-80
2022/02/07 12:28:47;;;;;;;0.00;0.00;;;7.20;99.90;;;;;;5035202;28;20083;-81
2022/02/07 12:31:20;;;;;;;0.10;0.10;;;7.30;99.90;;;;;;5054782;28;20092;-80
2022/02/07 12:33:54;;;;;;;0.10;0.10;;;7.40;99.90;;;;;;5051735;28;20029;-80
2022/02/07 12:36:24;;;;;;;0.10;0.10;;;7.40;99.90;;;;;;5051382;28;20041;-86
2022/02/07 12:38:52;;;;;;;0.10;0.10;;;7.40;99.90;;;;;;5067663;28;20888;-85
2022/02/07 12:41:22;;;;;;;0.00;0.00;;;7.60;99.90;;;;;;5035942;28;20080;-86
2022/02/07 12:43:51;;;;;;;0.10;0.10;;;7.30;99.90;;;;;;5051553;28;20045;-86
2022/02/07 12:46:21;;;;;;;0.10;0.10;;;7.20;99.90;;;;;;5051910;28;20041;-81
2022/02/07 12:49:01;;;;;;;0.10;0.10;;;7.10;99.90;;;;;;5063544;28;20041;-80
2022/02/07 12:51:37;;;;;;;0.10;0.10;;;7.10;99.90;;;;;;5059496;28;20038;-80
2022/02/07 12:54:03;;;;;;;0.10;0.10;;;7.00;99.90;;;;;;5051824;28;20383;-86
2022/02/07 12:56:32;;;;;;;0.10;0.10;;;7.10;99.90;;;;;;5036342;28;20079;-81
2022/02/07 12:59:01;;;;;;;0.10;0.10;;;7.30;99.90;;;;;;5035045;28;20119;-87
2022/02/07 13:01:36;;;;;;;0.10;0.10;;;7.30;99.90;;;;;;5036014;28;20084;-86
2022/02/07 13:04:05;;;;;;;;;;;7.30;99.90;;;;;;5068327;28;20494;-86
2022/02/07 13:06:39;;;;;;;0.10;0.10;;;7.30;99.90;;;;;;5053401;28;19924;-86
2022/02/07 13:09:25;;;;;;;0.10;0.10;;;7.30;99.90;;;;;;5058153;28;20497;-80
2022/02/07 13:14:48;;;;;;;0.10;0.10;;;7.10;99.90;;;;;;5067304;28;20120;-81
2022/02/07 13:17:17;;;;;;;0.10;0.10;;;7.00;99.90;;;;;;5055738;28;20039;-80
2022/02/07 13:19:47;;;;;;;0.10;0.10;;;7.00;99.90;;;;;;5054550;28;20779;-80
2022/02/07 13:22:16;;;;;;;0.00;0.00;;;6.90;99.90;;;;;;5058221;28;20398;-87
2022/02/07 13:24:45;;;;;;;0.10;0.10;;;6.80;99.90;;;;;;5062849;28;20128;-86
2022/02/07 13:27:15;;;;;;;0.10;0.10;;;6.70;99.90;;;;;;5056535;28;20037;-87
2022/02/07 13:29:45;;;;;;;0.10;0.10;;;6.70;99.90;;;;;;5061493;28;20065;-87
2022/02/07 13:32:14;;;;;;;0.10;0.10;;;6.70;99.90;;;;;;5073446;28;20038;-87
2022/02/07 13:34:42;;;;;;;0.10;0.10;;;6.60;99.90;;;;;;5050068;28;20041;-80
2022/02/07 13:37:14;;;;;;;0.10;0.10;;;6.60;99.90;;;;;;5050833;28;20041;-80
2022/02/07 13:40:02;;;;;;;0.10;0.10;;;6.60;99.90;;;;;;5064636;28;20041;-86
2022/02/07 13:42:31;;;;;;;0.10;0.10;;;6.60;99.90;;;;;;5087704;28;20533;-87
2022/02/07 13:45:10;;;;;;;0.10;0.10;;;6.50;99.90;;;;;;5061993;28;20029;-80
2022/02/07 13:47:40;;;;;;;0.10;0.10;;;6.40;99.90;;;;;;5058452;28;20037;-87
2022/02/07 13:50:13;;;;;;;0.10;0.10;;;6.20;99.90;;;;;;5061410;28;20466;-88
2022/02/07 13:52:43;;;;;;;0.10;0.10;;;6.10;99.90;;;;;;5070251;28;20045;-87
2022/02/07 13:55:24;;;;;;;0.00;0.00;;;6.10;99.90;;;;;;5059216;28;20041;-87
2022/02/07 13:58:06;;;;;;;0.10;0.10;;;6.00;99.90;;;;;;5050146;28;20064;-86
2022/02/07 14:00:52;;;;;;;0.10;0.10;;;6.10;99.90;;;;;;5051598;28;20459;-86
2022/02/07 14:03:32;;;;;;;0.10;0.10;;;6.20;99.90;;;;;;5050282;28;20506;-80
2022/02/07 14:06:06;;;;;;;0.10;0.10;;;6.30;99.90;;;;;;5049690;28;20567;-86
2022/02/07 14:08:49;;;;;;;0.10;0.10;;;6.40;99.90;;;;;;5051078;28;20091;-80
2022/02/07 14:11:23;;;;;;;0.10;0.10;;;6.40;99.90;;;;;;5066546;28;20041;-85
2022/02/07 14:13:52;;;;;;;0.10;0.10;;;6.40;99.90;;;;;;5050139;28;20045;-85
2022/02/07 14:16:22;;;;;;;0.10;0.10;;;6.40;99.90;;;;;;5049958;28;20048;-81
2022/02/07 14:18:50;;;;;;;0.10;0.10;;;6.40;99.90;;;;;;5050193;28;20071;-85
2022/02/07 14:21:20;;;;;;;0.10;0.10;;;6.50;99.90;;;;;;5066514;28;20052;-86
2022/02/07 14:23:48;;;;;;;0.10;0.10;;;6.50;99.90;;;;;;5049461;28;20132;-86
2022/02/07 14:26:18;;;;;;;0.10;0.10;;;6.60;99.90;;;;;;5066703;28;20053;-79
2022/02/07 14:28:47;;;;;;;0.10;0.10;;;6.50;99.90;;;;;;5066496;28;20402;-80
2022/02/07 14:31:14;;;;;;;0.10;0.10;;;6.50;99.90;;;;;;5050141;28;20140;-85
2022/02/07 14:33:41;;;;;;;0.00;0.00;;;6.40;99.90;;;;;;5049958;28;20045;-85
2022/02/07 14:36:09;;;;;;;0.10;0.10;;;6.40;99.90;;;;;;5065723;28;20068;-79
2022/02/07 14:38:37;;;;;;;0.00;0.00;;;6.80;99.90;;;;;;5065905;28;20529;-79
2022/02/07 14:41:11;;;;;;;0.10;0.10;;;6.30;99.90;;;;;;5033066;28;20116;-85
2022/02/07 14:43:38;;;;;;;0.10;0.10;;;6.30;99.90;;;;;;5049129;28;20049;-85
2022/02/07 14:46:10;;;;;;;0.10;0.10;;;6.30;99.90;;;;;;5049069;28;20048;-86
2022/02/07 14:48:39;;;;;;;0.10;0.10;;;7.00;99.90;;;;;;5033836;28;20116;-83
2022/02/07 14:51:08;;;;;;;0.08;0.08;;;6.20;99.90;;;;;;5049672;28;20094;-79
2022/02/07 14:53:38;;;;;;;0.10;0.10;;;6.10;99.90;;;;;;5066393;28;20041;-79
2022/02/07 14:56:06;;;;;;;0.10;0.10;;;6.10;99.90;;;;;;5049013;28;20041;-79
2022/02/07 14:58:34;;;;;;;0.10;0.10;;;6.20;99.90;;;;;;5049269;28;20053;-84
2022/02/07 15:01:02;;;;;;;0.10;0.10;;;6.40;99.90;;;;;;5032968;28;20899;-79
2022/02/07 15:03:29;;;;;;;0.10;0.10;;;6.00;99.90;;;;;;5048336;28;20083;-79
2022/02/07 15:05:57;;;;;;;0.10;0.10;;;6.00;99.90;;;;;;5040607;28;20151;-79
2022/02/07 15:08:26;;;;;;;0.10;0.10;;;6.10;99.90;;;;;;5040549;28;20130;-78
2022/02/07 15:10:53;;;;;;;0.10;0.10;;;6.00;99.90;;;;;;5050331;28;20034;-85
2022/02/07 15:13:20;;;;;;;0.10;0.10;;;6.00;99.90;;;;;;5066315;28;20044;-87
2022/02/07 15:15:47;;;;;;;0.03;0.03;;;6.00;99.90;;;;;;5049809;28;20056;-79
2022/02/07 15:18:14;;;;;;;0.10;0.10;;;6.00;99.90;;;;;;5032548;28;20550;-78
2022/02/07 15:20:45;;;;;;;0.10;0.10;;;6.00;99.90;;;;;;5033468;28;20041;-89
2022/02/07 15:23:18;;;;;;;0.10;0.10;;;6.00;99.90;;;;;;5033806;28;20778;-79
2022/02/07 15:25:47;;;;;;;0.10;0.10;;;6.00;99.90;;;;;;5049067;28;20904;-78
2022/02/07 15:28:16;;;;;;;0.10;0.10;;;5.90;99.90;;;;;;5033496;28;20043;-91
2022/02/07 15:30:47;;;;;;;0.10;0.10;;;5.90;99.90;;;;;;5050165;28;20044;-86
2022/02/07 15:33:19;;;;;;;0.10;0.10;;;5.80;99.90;;;;;;5048239;28;20037;-84
2022/02/07 15:35:49;;;;;;;0.10;0.10;;;5.80;99.90;;;;;;5065803;28;20087;-86
2022/02/07 15:38:16;;;;;;;0.10;0.10;;;6.40;99.90;;;;;;5052609;28;20077;-85
2022/02/07 15:40:44;;;;;;;0.10;0.10;;;5.70;99.90;;;;;;5073125;28;20048;-86
2022/02/07 15:43:11;;;;;;;0.10;0.10;;;5.60;99.90;;;;;;5052418;28;20498;-86
2022/02/07 15:45:39;;;;;;;0.10;0.10;;;5.60;99.90;;;;;;5080954;28;20418;-81
2022/02/07 15:48:10;;;;;;;0.10;0.10;;;5.60;99.90;;;;;;5072466;28;20513;-80